createdAt,value
2018-08-09T00:02:22.773Z,16.40
2018-08-09T00:04:51.334Z,17.83
2018-08-09T00:07:19.937Z,14.00
2018-08-09T00:09:48.576Z,14.97
2018-08-09T00:12:17.237Z,13.30
2018-08-09T00:14:45.830Z,11.77
2018-08-09T00:17:14.448Z,13.17
2018-08-09T00:19:43.052Z,12.13
2018-08-09T00:22:11.809Z,15.17
2018-08-09T00:24:40.377Z,18.67
2018-08-09T00:27:08.973Z,13.30
2018-08-09T00:29:37.550Z,17.00
2018-08-09T00:32:06.145Z,23.53
2018-08-09T00:34:34.744Z,14.73
2018-08-09T00:37:03.306Z,19.27
2018-08-09T00:39:31.898Z,15.97
2018-08-09T00:42:00.465Z,13.23
2018-08-09T00:44:29.059Z,12.20
2018-08-09T00:46:57.708Z,16.53
2018-08-09T00:49:26.297Z,15.20
2018-08-09T00:51:54.985Z,15.47
2018-08-09T00:54:23.530Z,16.87
2018-08-09T00:56:52.153Z,15.83
2018-08-09T00:59:20.679Z,16.00
2018-08-09T01:01:49.287Z,17.57
2018-08-09T01:04:17.839Z,13.50
2018-08-09T01:06:46.520Z,17.03
2018-08-09T01:09:16.002Z,15.60
2018-08-09T01:11:45.121Z,15.27
2018-08-09T01:14:13.716Z,15.70
2018-08-09T01:16:42.271Z,15.37
2018-08-09T01:19:11.999Z,17.10
2018-08-09T01:21:40.533Z,19.47
2018-08-09T01:24:09.147Z,13.13
2018-08-09T01:26:37.781Z,17.20
2018-08-09T01:29:06.404Z,13.57
2018-08-09T01:31:37.017Z,19.10
2018-08-09T01:34:06.749Z,17.43
2018-08-09T01:36:35.968Z,17.17
2018-08-09T01:39:08.827Z,13.57
2018-08-09T01:41:37.390Z,13.30
2018-08-09T01:44:07.021Z,16.37
2018-08-09T01:46:35.659Z,16.87
2018-08-09T01:49:04.213Z,15.93
2018-08-09T01:51:32.845Z,16.40
2018-08-09T01:54:01.441Z,12.50
2018-08-09T01:56:30.027Z,16.50
2018-08-09T01:58:58.645Z,15.10
2018-08-09T02:01:27.235Z,16.57
2018-08-09T02:03:55.828Z,14.70
2018-08-09T02:06:24.365Z,19.23
2018-08-09T02:08:53.050Z,16.00
2018-08-09T02:11:21.681Z,16.17
2018-08-09T02:13:50.261Z,16.30
2018-08-09T02:16:18.822Z,15.50
2018-08-09T02:18:47.527Z,15.73
2018-08-09T02:21:16.103Z,18.17
2018-08-09T02:23:44.725Z,19.20
2018-08-09T02:26:13.232Z,21.00
2018-08-09T02:28:41.785Z,15.60
2018-08-09T02:31:10.357Z,14.47
2018-08-09T02:33:38.985Z,14.77
2018-08-09T02:36:07.509Z,14.53
2018-08-09T02:38:36.125Z,15.33
2018-08-09T02:41:04.692Z,16.87
2018-08-09T02:43:33.229Z,13.83
2018-08-09T02:46:01.869Z,15.10
2018-08-09T02:48:30.502Z,14.47
2018-08-09T02:50:59.068Z,14.80
2018-08-09T02:53:27.671Z,16.27
2018-08-09T02:55:56.265Z,18.00
2018-08-09T02:58:24.890Z,14.73
2018-08-09T03:00:53.478Z,16.30
2018-08-09T03:03:22.133Z,16.77
2018-08-09T03:05:50.705Z,16.07
2018-08-09T03:08:19.304Z,15.00
2018-08-09T03:10:47.918Z,19.23
2018-08-09T03:13:16.510Z,15.97
2018-08-09T03:15:45.077Z,15.47
2018-08-09T03:18:13.704Z,13.30
2018-08-09T03:20:42.345Z,19.13
2018-08-09T03:23:10.851Z,17.43
2018-08-09T03:25:39.555Z,20.10
2018-08-09T03:28:08.182Z,18.63
2018-08-09T03:30:36.773Z,17.00
2018-08-09T03:33:05.449Z,19.00
2018-08-09T03:35:33.989Z,18.20
2018-08-09T03:38:02.712Z,15.70
2018-08-09T03:40:31.359Z,17.57
2018-08-09T03:42:59.946Z,14.00
2018-08-09T03:45:28.577Z,17.70
2018-08-09T03:47:57.134Z,20.70
2018-08-09T03:50:25.753Z,18.70
2018-08-09T03:52:54.352Z,17.70
2018-08-09T03:55:23.009Z,17.27
2018-08-09T03:57:51.566Z,17.83
2018-08-09T04:00:20.273Z,18.33
2018-08-09T04:02:48.817Z,18.80
2018-08-09T04:05:17.486Z,17.73
2018-08-09T04:07:46.059Z,15.50
2018-08-09T04:10:14.664Z,14.27
2018-08-09T04:12:43.246Z,19.50
2018-08-09T04:15:12.505Z,17.57
2018-08-09T04:17:41.170Z,19.17
2018-08-09T04:20:09.794Z,26.13
2018-08-09T04:22:38.328Z,18.57
2018-08-09T04:25:06.991Z,13.67
2018-08-09T04:27:35.588Z,18.87
2018-08-09T04:30:04.709Z,20.13
2018-08-09T04:32:33.288Z,16.67
2018-08-09T04:35:01.923Z,18.00
2018-08-09T04:37:30.567Z,17.23
2018-08-09T04:39:59.173Z,19.77
2018-08-09T04:42:28.582Z,19.57
2018-08-09T04:44:57.206Z,15.80
2018-08-09T04:47:25.747Z,19.40
2018-08-09T04:49:54.622Z,19.43
2018-08-09T04:52:23.502Z,16.50
2018-08-09T04:54:52.290Z,16.83
2018-08-09T04:57:21.147Z,20.40
2018-08-09T04:59:49.987Z,20.20
2018-08-09T05:02:18.772Z,16.07
2018-08-09T05:04:47.754Z,20.10
2018-08-09T05:07:16.708Z,16.63
2018-08-09T05:09:45.375Z,18.57
2018-08-09T05:12:14.053Z,20.80
2018-08-09T05:14:42.604Z,20.90
2018-08-09T05:17:11.235Z,19.57
2018-08-09T05:19:39.952Z,23.03
2018-08-09T05:22:08.774Z,14.63
2018-08-09T05:24:37.321Z,17.93
2018-08-09T05:27:05.995Z,17.33
2018-08-09T05:29:34.640Z,18.83
2018-08-09T05:32:03.211Z,20.23
2018-08-09T05:34:31.791Z,23.00
2018-08-09T05:37:00.362Z,17.67
2018-08-09T05:39:28.873Z,19.07
2018-08-09T05:41:57.486Z,23.03
2018-08-09T05:44:26.069Z,25.13
2018-08-09T05:46:54.716Z,20.47
2018-08-09T05:49:23.298Z,15.20
2018-08-09T05:51:51.832Z,20.60
2018-08-09T05:54:20.423Z,21.53
2018-08-09T05:56:49.049Z,16.70
2018-08-09T05:59:17.965Z,17.20
2018-08-09T06:01:46.557Z,18.13
2018-08-09T06:04:15.162Z,15.27
2018-08-09T06:06:43.806Z,19.53
2018-08-09T06:09:13.345Z,15.83
2018-08-09T06:11:42.061Z,18.07
2018-08-09T06:14:11.074Z,15.57
2018-08-09T06:16:40.242Z,17.50
2018-08-09T06:19:08.887Z,20.00
2018-08-09T06:21:37.546Z,17.77
2018-08-09T06:24:06.170Z,17.07
2018-08-09T06:26:34.871Z,20.83
2018-08-09T06:29:03.505Z,16.50
2018-08-09T06:31:32.123Z,19.30
2018-08-09T06:34:00.673Z,20.93
2018-08-09T06:36:29.316Z,22.83
2018-08-09T06:38:57.939Z,20.17
2018-08-09T06:41:26.538Z,19.40
2018-08-09T06:43:55.135Z,18.13
2018-08-09T06:46:23.733Z,29.23
2018-08-09T06:48:52.287Z,15.53
2018-08-09T06:51:20.904Z,25.43
2018-08-09T06:53:49.538Z,15.80
2018-08-09T06:56:18.207Z,14.83
2018-08-09T06:58:46.760Z,14.57
2018-08-09T07:01:15.352Z,22.17
2018-08-09T07:03:43.878Z,17.80
2018-08-09T07:06:13.554Z,21.00
2018-08-09T07:08:42.140Z,17.37
2018-08-09T07:11:10.756Z,21.33
2018-08-09T07:13:39.322Z,14.87
2018-08-09T07:16:07.968Z,13.00
2018-08-09T07:18:36.544Z,23.50
2018-08-09T07:21:05.210Z,14.00
2018-08-09T07:23:33.781Z,20.70
2018-08-09T07:26:02.379Z,19.17
2018-08-09T07:28:30.997Z,16.90
2018-08-09T07:30:59.664Z,15.93
2018-08-09T07:33:28.295Z,18.73
2018-08-09T07:35:56.910Z,15.17
2018-08-09T07:38:25.543Z,18.10
2018-08-09T07:40:54.184Z,16.83
2018-08-09T07:43:22.793Z,17.77
2018-08-09T07:45:51.385Z,13.13
2018-08-09T07:48:20.165Z,18.50
2018-08-09T07:50:48.789Z,13.60
2018-08-09T07:53:17.433Z,14.80
2018-08-09T07:55:45.984Z,12.37
2018-08-09T07:58:14.574Z,17.63
2018-08-09T08:00:43.231Z,11.63
2018-08-09T08:03:11.818Z,14.80
2018-08-09T08:05:40.397Z,16.03
2018-08-09T08:08:09.063Z,17.60
2018-08-09T08:10:37.678Z,15.70
2018-08-09T08:13:06.273Z,14.33
2018-08-09T08:15:35.008Z,17.50
2018-08-09T08:18:05.230Z,14.10
2018-08-09T08:20:33.893Z,13.20
2018-08-09T08:23:02.544Z,13.90
2018-08-09T08:25:31.064Z,11.57
2018-08-09T08:27:59.617Z,12.53
2018-08-09T08:30:28.215Z,15.00
2018-08-09T08:32:56.806Z,13.67
2018-08-09T08:35:25.368Z,13.30
2018-08-09T08:37:53.990Z,13.07
2018-08-09T08:40:22.550Z,12.30
2018-08-09T08:42:51.152Z,13.27
2018-08-09T08:45:19.740Z,11.03
2018-08-09T08:47:48.368Z,10.50
2018-08-09T08:50:17.009Z,13.50
2018-08-09T08:52:45.619Z,14.40
2018-08-09T08:55:14.287Z,13.80
2018-08-09T08:57:43.008Z,17.90
2018-08-09T09:00:12.788Z,13.90
2018-08-09T09:02:41.498Z,10.60
2018-08-09T09:05:11.846Z,10.17
2018-08-09T09:07:40.580Z,14.93
2018-08-09T09:10:10.684Z,15.17
2018-08-09T09:12:39.401Z,17.23
2018-08-09T09:15:10.453Z,9.73
2018-08-09T09:17:39.534Z,11.30
2018-08-09T09:20:10.771Z,14.70
2018-08-09T09:22:39.430Z,11.77
2018-08-09T09:25:08.939Z,11.27
2018-08-09T09:27:37.860Z,13.40
2018-08-09T09:30:09.297Z,12.70
2018-08-09T09:32:38.633Z,12.47
2018-08-09T09:35:07.890Z,10.40
2018-08-09T09:37:36.688Z,11.53
2018-08-09T09:40:06.422Z,13.90
2018-08-09T09:42:34.993Z,11.33
2018-08-09T09:45:04.058Z,12.10
2018-08-09T09:47:32.653Z,14.17
2018-08-09T09:50:01.289Z,16.40
2018-08-09T09:52:29.868Z,11.37
2018-08-09T09:54:58.698Z,15.03
2018-08-09T09:57:27.344Z,12.17
2018-08-09T09:59:55.873Z,9.40
2018-08-09T10:02:24.487Z,13.07
2018-08-09T10:04:53.125Z,10.23
2018-08-09T10:07:21.800Z,9.80
2018-08-09T10:09:50.359Z,11.53
2018-08-09T10:12:18.959Z,16.53
2018-08-09T10:14:47.639Z,12.70
2018-08-09T10:17:16.209Z,9.00
2018-08-09T10:19:44.782Z,10.70
2018-08-09T10:22:13.465Z,13.70
2018-08-09T10:24:42.032Z,12.90
2018-08-09T10:27:10.607Z,11.73
2018-08-09T10:29:39.262Z,9.40
2018-08-09T10:32:07.804Z,13.33
2018-08-09T10:34:36.438Z,9.97
2018-08-09T10:37:05.059Z,10.50
2018-08-09T10:39:33.612Z,12.23
2018-08-09T10:42:02.226Z,10.37
2018-08-09T10:44:30.845Z,8.30
2018-08-09T10:46:59.469Z,11.40
2018-08-09T10:49:28.056Z,12.20
2018-08-09T10:51:56.604Z,11.93
2018-08-09T10:54:25.185Z,9.40
2018-08-09T10:56:53.937Z,8.50
2018-08-09T10:59:22.542Z,10.27
2018-08-09T11:01:51.170Z,8.80
2018-08-09T11:04:19.665Z,10.00
2018-08-09T11:06:48.291Z,8.80
2018-08-09T11:09:16.865Z,8.80
2018-08-09T11:11:45.439Z,9.67
2018-08-09T11:14:14.028Z,9.27
2018-08-09T11:16:42.597Z,9.90
2018-08-09T11:19:11.201Z,9.00
2018-08-09T11:21:39.792Z,10.07
2018-08-09T11:24:08.384Z,9.20
2018-08-09T11:26:36.916Z,8.87
2018-08-09T11:29:05.705Z,8.47
2018-08-09T11:31:34.241Z,9.47
2018-08-09T11:34:03.350Z,8.73
2018-08-09T11:36:31.832Z,12.83
2018-08-09T11:39:00.547Z,8.23
2018-08-09T11:41:29.100Z,9.20
2018-08-09T11:43:57.708Z,7.63
2018-08-09T11:46:26.315Z,10.00
2018-08-09T11:48:54.921Z,8.80
2018-08-09T11:51:23.493Z,7.93
2018-08-09T11:53:52.120Z,9.40
2018-08-09T11:56:20.735Z,7.30
2018-08-09T11:58:49.269Z,7.90
2018-08-09T12:01:17.884Z,10.13
2018-08-09T12:03:46.470Z,8.10
2018-08-09T12:06:15.006Z,9.37
2018-08-09T12:08:43.675Z,9.17
2018-08-09T12:11:12.218Z,8.00
2018-08-09T12:13:40.941Z,8.60
2018-08-09T12:16:09.764Z,7.63
2018-08-09T12:18:38.381Z,7.07
2018-08-09T12:21:07.315Z,8.43
2018-08-09T12:23:35.848Z,6.90
2018-08-09T12:26:04.504Z,9.47
2018-08-09T12:28:33.160Z,7.20
2018-08-09T12:31:01.768Z,10.93
2018-08-09T12:33:30.475Z,9.43
2018-08-09T12:35:59.099Z,6.70
2018-08-09T12:38:27.693Z,10.07
2018-08-09T12:40:56.270Z,7.20
2018-08-09T12:43:25.041Z,11.23
2018-08-09T12:45:53.696Z,6.13
2018-08-09T12:48:22.298Z,6.50
2018-08-09T12:50:50.981Z,6.70
2018-08-09T12:53:19.676Z,6.90
2018-08-09T12:55:48.256Z,7.23
2018-08-09T12:58:16.942Z,9.70
2018-08-09T13:00:45.567Z,7.13
2018-08-09T13:03:14.192Z,6.30
2018-08-09T13:05:42.994Z,6.13
2018-08-09T13:08:11.662Z,5.73
2018-08-09T13:10:40.318Z,7.87
2018-08-09T13:13:08.922Z,10.63
2018-08-09T13:15:37.621Z,6.73
2018-08-09T13:18:06.431Z,7.93
2018-08-09T13:20:35.020Z,6.80
2018-08-09T13:23:03.561Z,8.03
2018-08-09T13:25:33.141Z,7.27
2018-08-09T13:28:01.820Z,6.70
2018-08-09T13:30:30.497Z,7.47
2018-08-09T13:32:59.115Z,6.73
2018-08-09T13:35:27.699Z,7.27
2018-08-09T13:37:56.379Z,7.20
2018-08-09T13:40:25.046Z,9.23
2018-08-09T13:42:53.703Z,5.97
2018-08-09T13:45:22.308Z,5.27
2018-08-09T13:47:50.957Z,24.00
2018-08-09T13:50:19.608Z,17.63
2018-08-09T13:52:48.362Z,15.50
2018-08-09T13:55:17.001Z,10.23
2018-08-09T13:57:45.644Z,9.23
2018-08-09T14:00:14.887Z,9.63
2018-08-09T14:02:44.873Z,10.40
2018-08-09T14:05:13.557Z,8.60
2018-08-09T14:07:43.307Z,6.00
2018-08-09T14:10:12.292Z,9.00
2018-08-09T14:12:41.768Z,7.93
2018-08-09T14:15:11.806Z,8.10
2018-08-09T14:17:40.687Z,5.83
2018-08-09T14:20:11.544Z,6.90
2018-08-09T14:22:40.121Z,6.40
2018-08-09T14:25:08.741Z,7.60
2018-08-09T14:27:38.136Z,6.47
2018-08-09T14:30:08.305Z,8.07
2018-08-09T14:32:37.004Z,7.03
2018-08-09T14:35:07.807Z,5.13
2018-08-09T14:37:36.518Z,5.70
2018-08-09T14:40:06.459Z,9.03
2018-08-09T14:42:35.290Z,8.33
2018-08-09T14:45:05.154Z,6.17
2018-08-09T14:47:33.806Z,7.47
2018-08-09T14:50:02.818Z,6.00
2018-08-09T14:52:31.495Z,8.70
2018-08-09T14:55:00.196Z,8.10
2018-08-09T14:57:28.942Z,6.50
2018-08-09T14:59:57.926Z,6.80
2018-08-09T15:02:26.665Z,7.23
2018-08-09T15:04:55.331Z,5.10
2018-08-09T15:07:24.044Z,7.57
2018-08-09T15:09:52.605Z,7.30
2018-08-09T15:12:21.217Z,6.23
2018-08-09T15:14:49.883Z,9.40
2018-08-09T15:17:18.645Z,7.63
2018-08-09T15:19:47.194Z,6.47
2018-08-09T15:22:15.878Z,9.13
2018-08-09T15:24:44.439Z,5.70
2018-08-09T15:27:13.106Z,8.00
2018-08-09T15:29:41.742Z,7.53
2018-08-09T15:32:10.394Z,8.27
2018-08-09T15:34:38.909Z,5.43
2018-08-09T15:37:07.572Z,8.00
2018-08-09T15:39:36.283Z,6.30
2018-08-09T15:42:04.915Z,9.23
2018-08-09T15:44:33.515Z,5.73
2018-08-09T15:47:02.298Z,7.10
2018-08-09T15:49:30.850Z,6.53
2018-08-09T15:51:59.587Z,5.23
2018-08-09T15:54:28.201Z,8.40
2018-08-09T15:56:56.781Z,5.57
2018-08-09T15:59:25.365Z,4.77
2018-08-09T16:01:53.991Z,3.90
2018-08-09T16:04:22.687Z,6.03
2018-08-09T16:06:51.338Z,8.60
2018-08-09T16:09:19.905Z,3.93
2018-08-09T16:11:48.527Z,4.30
2018-08-09T16:14:17.216Z,4.23
2018-08-09T16:16:45.849Z,6.27
2018-08-09T16:19:14.587Z,4.53
2018-08-09T16:21:43.170Z,3.87
2018-08-09T16:24:11.819Z,5.30
2018-08-09T16:26:40.449Z,6.73
2018-08-09T16:29:09.031Z,5.33
2018-08-09T16:31:37.696Z,4.33
2018-08-09T16:34:06.356Z,6.80
2018-08-09T16:36:35.032Z,4.80
2018-08-09T16:39:04.642Z,4.30
2018-08-09T16:41:33.199Z,6.60
2018-08-09T16:44:01.799Z,5.20
2018-08-09T16:46:30.441Z,6.03
2018-08-09T16:48:59.084Z,6.67
2018-08-09T16:51:27.717Z,4.07
2018-08-09T16:53:56.377Z,5.33
2018-08-09T16:56:25.061Z,6.27
2018-08-09T16:58:53.728Z,4.33
2018-08-09T17:01:22.327Z,5.63
2018-08-09T17:03:51.105Z,7.30
2018-08-09T17:06:19.837Z,4.50
2018-08-09T17:08:48.855Z,6.73
2018-08-09T17:11:17.577Z,7.30
2018-08-09T17:13:46.379Z,6.53
2018-08-09T17:16:14.998Z,6.57
2018-08-09T17:18:43.636Z,2.80
2018-08-09T17:21:12.413Z,4.50
2018-08-09T17:23:41.067Z,2.83
2018-08-09T17:26:09.676Z,6.60
2018-08-09T17:28:38.313Z,7.20
2018-08-09T17:31:07.313Z,3.50
2018-08-09T17:33:36.028Z,4.87
2018-08-09T17:36:04.802Z,5.43
2018-08-09T17:38:33.486Z,4.90
2018-08-09T17:41:02.335Z,2.83
2018-08-09T17:43:31.008Z,3.10
2018-08-09T17:45:59.637Z,2.40
2018-08-09T17:48:28.308Z,3.53
2018-08-09T17:50:56.968Z,3.67
2018-08-09T17:53:25.603Z,4.27
2018-08-09T17:55:54.298Z,4.00
2018-08-09T17:58:22.953Z,4.13
2018-08-09T18:00:51.641Z,7.50
2018-08-09T18:03:20.331Z,5.50
2018-08-09T18:05:49.039Z,3.63
2018-08-09T18:08:17.672Z,6.80
2018-08-09T18:10:46.429Z,4.90
2018-08-09T18:13:15.274Z,4.20
2018-08-09T18:15:43.957Z,4.43
2018-08-09T18:18:12.585Z,5.83
2018-08-09T18:20:41.243Z,3.90
2018-08-09T18:23:09.961Z,5.60
2018-08-09T18:25:38.567Z,5.70
2018-08-09T18:28:08.232Z,4.83
2018-08-09T18:30:36.922Z,7.63
2018-08-09T18:33:05.551Z,4.83
2018-08-09T18:35:34.961Z,10.23
2018-08-09T18:38:03.637Z,8.30
2018-08-09T18:40:32.278Z,4.90
2018-08-09T18:43:00.919Z,4.90
2018-08-09T18:45:29.546Z,4.90
2018-08-09T18:47:58.128Z,7.50
2018-08-09T18:50:28.956Z,7.43
2018-08-09T18:52:57.638Z,7.43
2018-08-09T18:55:26.424Z,5.67
2018-08-09T18:57:55.000Z,5.70
2018-08-09T19:00:25.496Z,9.13
2018-08-09T19:02:54.496Z,5.83
2018-08-09T19:05:23.574Z,4.93
2018-08-09T19:07:52.310Z,3.83
2018-08-09T19:10:24.492Z,4.73
2018-08-09T19:12:53.126Z,6.37
2018-08-09T19:15:21.957Z,8.03
2018-08-09T19:17:50.905Z,4.83
2018-08-09T19:20:28.824Z,5.70
2018-08-09T19:22:58.329Z,5.43
2018-08-09T19:25:26.921Z,5.67
2018-08-09T19:27:55.646Z,3.70
2018-08-09T19:30:25.972Z,4.27
2018-08-09T19:32:54.872Z,7.90
2018-08-09T19:35:23.865Z,5.30
2018-08-09T19:37:52.501Z,5.00
2018-08-09T19:40:23.582Z,5.10
2018-08-09T19:42:52.231Z,5.23
2018-08-09T19:45:21.278Z,7.40
2018-08-09T19:47:50.049Z,6.70
2018-08-09T19:50:20.335Z,4.60
2018-08-09T19:52:48.951Z,5.07
2018-08-09T19:55:19.096Z,6.20
2018-08-09T19:57:48.762Z,5.17
2018-08-09T20:00:19.236Z,4.83
2018-08-09T20:02:48.474Z,7.17
2018-08-09T20:05:17.127Z,4.80
2018-08-09T20:07:45.747Z,11.23
2018-08-09T20:10:14.919Z,6.07
2018-08-09T20:12:44.440Z,5.50
2018-08-09T20:15:15.846Z,7.10
2018-08-09T20:17:44.557Z,5.53
2018-08-09T20:20:14.608Z,4.73
2018-08-09T20:22:43.419Z,4.87
2018-08-09T20:25:12.897Z,8.13
2018-08-09T20:27:42.336Z,5.70
2018-08-09T20:30:12.711Z,6.27
2018-08-09T20:32:41.850Z,8.00
2018-08-09T20:35:14.018Z,6.47
2018-08-09T20:37:43.684Z,8.17
2018-08-09T20:40:12.663Z,7.37
2018-08-09T20:42:41.766Z,6.93
2018-08-09T20:45:12.124Z,5.40
2018-08-09T20:47:40.788Z,6.13
2018-08-09T20:50:11.849Z,5.50
2018-08-09T20:52:41.234Z,5.97
2018-08-09T20:55:10.483Z,5.30
2018-08-09T20:57:40.010Z,8.50
2018-08-09T21:00:12.433Z,6.63
2018-08-09T21:02:41.031Z,4.83
2018-08-09T21:05:10.480Z,5.80
2018-08-09T21:07:39.102Z,5.50
2018-08-09T21:10:07.754Z,9.30
2018-08-09T21:12:36.336Z,6.63
2018-08-09T21:15:06.131Z,6.47
2018-08-09T21:17:34.760Z,5.20
2018-08-09T21:20:03.443Z,6.00
2018-08-09T21:22:32.002Z,6.63
2018-08-09T21:25:00.632Z,6.00
2018-08-09T21:27:29.194Z,6.60
2018-08-09T21:29:57.865Z,5.57
2018-08-09T21:32:26.422Z,5.20
2018-08-09T21:34:55.518Z,5.93
2018-08-09T21:37:24.196Z,6.33
2018-08-09T21:39:52.806Z,6.17
2018-08-09T21:42:21.419Z,5.20
2018-08-09T21:44:50.091Z,6.10
2018-08-09T21:47:18.737Z,6.23
2018-08-09T21:49:47.387Z,5.13
2018-08-09T21:52:15.960Z,5.20
2018-08-09T21:54:44.493Z,5.43
2018-08-09T21:57:13.057Z,6.47
2018-08-09T21:59:41.683Z,5.60
2018-08-09T22:02:10.467Z,5.00
2018-08-09T22:04:44.567Z,4.80
2018-08-09T22:07:18.545Z,9.33
2018-08-09T22:09:52.589Z,5.00
2018-08-09T22:12:26.651Z,6.63
2018-08-09T22:15:00.463Z,4.80
2018-08-09T22:17:34.368Z,6.53
2018-08-09T22:20:08.384Z,5.50
2018-08-09T22:22:38.160Z,4.97
2018-08-09T22:25:08.383Z,4.83
2018-08-09T22:27:36.961Z,11.53
2018-08-09T22:30:07.883Z,4.10
2018-08-09T22:32:36.629Z,5.80
2018-08-09T22:35:05.912Z,4.87
2018-08-09T22:37:34.486Z,8.63
2018-08-09T22:40:03.173Z,4.07
2018-08-09T22:42:31.802Z,5.20
2018-08-09T22:45:00.402Z,5.53
2018-08-09T22:47:29.113Z,4.40
2018-08-09T22:49:57.749Z,5.37
2018-08-09T22:52:26.483Z,5.53
2018-08-09T22:54:55.038Z,5.50
2018-08-09T22:57:23.636Z,4.33
2018-08-09T22:59:52.240Z,5.30
2018-08-09T23:02:20.865Z,4.70
2018-08-09T23:04:49.505Z,5.20
2018-08-09T23:07:18.096Z,5.03
2018-08-09T23:09:46.748Z,6.47
2018-08-09T23:12:15.355Z,3.63
2018-08-09T23:14:43.981Z,6.80
2018-08-09T23:17:12.672Z,3.47
2018-08-09T23:19:41.698Z,4.67
2018-08-09T23:22:10.676Z,4.23
2018-08-09T23:24:39.625Z,3.83
2018-08-09T23:27:08.543Z,4.23
2018-08-09T23:29:37.241Z,5.20
2018-08-09T23:32:05.839Z,7.87
2018-08-09T23:34:34.469Z,5.43
2018-08-09T23:37:03.099Z,5.50
2018-08-09T23:39:31.744Z,4.40
2018-08-09T23:42:00.341Z,4.77
2018-08-09T23:44:28.993Z,5.83
2018-08-09T23:46:57.615Z,5.93
2018-08-09T23:49:26.230Z,4.47
2018-08-09T23:51:54.868Z,3.93
2018-08-09T23:54:23.404Z,4.57
2018-08-09T23:56:51.996Z,4.17
2018-08-09T23:59:20.600Z,3.40
